Time;durP1;ratioP1;P1;durP2;ratioP2;P2;SDS_P1;SDS_P2;PMS_P1;PMS_P2;Temp;Humidity;BMP_temperature;BMP_pressure;BME280_temperature;BME280_humidity;BME280_pressure;Samples;Min_cycle;Max_cycle;Signal;HPM_P1;HPM_P2
2023/08/06 00:01:53;;;;;;;11.40;7.80;;;;;;;22.74;80.22;98581.47;4473674;32;34569;-75
2023/08/06 00:04:21;;;;;;;12.07;8.98;;;;;;;22.43;82.36;98583.97;4478606;32;33456;-75
2023/08/06 00:06:48;;;;;;;12.65;8.50;;;;;;;22.61;81.10;98573.88;4476043;32;33953;-75
2023/08/06 00:09:16;;;;;;;13.38;9.63;;;;;;;22.58;81.48;98575.69;4479302;32;34681;-76
2023/08/06 00:11:44;;;;;;;13.75;9.15;;;;;;;22.71;80.86;98564.84;4468781;32;33420;-73
2023/08/06 00:14:11;;;;;;;13.35;10.13;;;;;;;22.51;80.98;98552.97;4477598;32;33732;-74
2023/08/06 00:16:39;;;;;;;14.23;9.40;;;;;;;23.03;78.59;98544.72;4475263;32;32710;-77
2023/08/06 00:19:06;;;;;;;13.30;10.10;;;;;;;22.62;80.45;98549.22;4470784;32;32621;-73
2023/08/06 00:21:34;;;;;;;13.50;10.00;;;;;;;22.69;80.21;98556.94;4479333;32;33849;-73
2023/08/06 00:24:01;;;;;;;16.27;10.02;;;;;;;22.63;80.31;98556.25;4473521;32;34351;-73
2023/08/06 00:26:29;;;;;;;14.70;10.60;;;;;;;22.85;79.64;98565.38;4461149;32;31869;-74
2023/08/06 00:28:57;;;;;;;13.90;10.32;;;;;;;22.56;80.65;98572.22;4477230;32;32626;-75
2023/08/06 00:31:24;;;;;;;15.75;9.43;;;;;;;22.81;79.94;98576.03;4460910;32;33567;-76
2023/08/06 00:33:52;;;;;;;14.55;10.57;;;;;;;22.50;81.19;98571.50;4475367;32;33613;-75
2023/08/06 00:36:19;;;;;;;14.45;10.10;;;;;;;22.72;80.62;98556.03;4461613;32;31749;-75
2023/08/06 00:38:47;;;;;;;15.07;10.70;;;;;;;22.71;80.36;98564.84;4478169;32;33606;-75
2023/08/06 00:41:15;;;;;;;14.80;10.10;;;;;;;22.87;78.60;98565.31;4471180;32;33664;-73
2023/08/06 00:43:42;;;;;;;14.48;10.30;;;;;;;22.67;80.28;98563.19;4455602;32;33574;-75
2023/08/06 00:46:12;;;;;;;15.75;11.05;;;;;;;22.37;82.02;98555.94;4475634;32;34013;-75
2023/08/06 00:48:40;;;;;;;16.67;11.38;;;;;;;22.26;82.65;98541.28;4476607;32;34436;-74
2023/08/06 00:51:11;;;;;;;14.65;9.98;;;;;;;22.41;81.89;98540.03;4474167;32;32346;-74
2023/08/06 00:53:39;;;;;;;15.77;10.52;;;;;;;22.42;82.48;98534.72;4463178;32;35272;-76
2023/08/06 00:56:07;;;;;;;14.05;10.15;;;;;;;22.18;83.51;98534.34;4476378;32;32725;-76
2023/08/06 00:58:36;;;;;;;14.60;10.23;;;;;;;22.61;80.68;98526.38;4477031;32;33501;-74
2023/08/06 01:01:03;;;;;;;12.95;9.40;;;;;;;22.68;80.00;98528.84;4470713;32;33612;-74
2023/08/06 01:03:31;;;;;;;12.57;9.13;;;;;;;22.81;79.17;98517.97;4476002;32;32373;-74
2023/08/06 01:06:00;;;;;;;12.85;8.77;;;;;;;22.48;79.89;98512.59;4470320;32;33249;-76
2023/08/06 01:08:57;;;;;;;12.35;8.50;;;;;;;22.61;79.84;98510.53;4474887;32;33487;-76
2023/08/06 01:11:50;;;;;;;11.50;8.10;;;;;;;22.74;78.18;98506.69;4464274;32;33152;-75
2023/08/06 01:14:23;;;;;;;10.93;7.57;;;;;;;22.74;77.96;98496.12;4472735;32;33107;-74
2023/08/06 01:16:51;;;;;;;9.93;7.00;;;;;;;22.29;79.66;98494.59;4465090;32;33783;-74
2023/08/06 01:19:21;;;;;;;11.23;7.45;;;;;;;22.28;79.68;98492.84;4461396;32;33636;-75
2023/08/06 01:21:49;;;;;;;10.07;6.87;;;;;;;22.38;79.70;98488.22;4476580;32;33631;-75
2023/08/06 01:24:17;;;;;;;10.23;7.62;;;;;;;22.39;79.77;98489.97;4470849;32;33403;-75
2023/08/06 01:26:50;;;;;;;10.30;6.93;;;;;;;22.24;80.58;98485.03;4460506;32;33299;-75
2023/08/06 01:29:47;;;;;;;10.75;7.28;;;;;;;22.31;79.98;98486.63;4470209;32;34342;-75
2023/08/06 01:32:15;;;;;;;9.68;6.97;;;;;;;22.54;78.44;98489.59;4457041;32;33676;-76
2023/08/06 01:34:45;;;;;;;10.20;6.93;;;;;;;22.28;79.75;98481.44;4471389;32;33238;-76
2023/08/06 01:37:12;;;;;;;10.75;7.12;;;;;;;22.03;80.85;98497.78;4477362;32;33329;-76
2023/08/06 01:39:42;;;;;;;10.40;6.83;;;;;;;22.24;79.41;98495.56;4456728;32;33812;-76
2023/08/06 01:42:10;;;;;;;9.43;6.30;;;;;;;22.22;79.54;98497.38;4459342;32;32663;-76
2023/08/06 01:44:37;;;;;;;9.88;6.47;;;;;;;22.21;79.48;98496.50;4474415;32;34297;-76
2023/08/06 01:47:05;;;;;;;8.63;6.40;;;;;;;22.12;80.32;98492.31;4465034;32;33409;-74
2023/08/06 01:49:33;;;;;;;9.45;6.32;;;;;;;22.15;79.89;98494.84;4480871;32;33611;-77
2023/08/06 01:52:00;;;;;;;10.48;6.22;;;;;;;21.99;80.85;98488.22;4475752;32;33955;-76
2023/08/06 01:54:28;;;;;;;9.38;5.75;;;;;;;22.18;79.30;98484.25;4478796;32;34454;-74
2023/08/06 01:56:58;;;;;;;8.13;5.60;;;;;;;22.12;79.82;98481.75;4478600;32;33883;-74
2023/08/06 01:59:25;;;;;;;8.27;5.82;;;;;;;22.14;79.48;98464.13;4479914;32;33993;-75
2023/08/06 02:01:54;;;;;;;8.05;5.43;;;;;;;22.44;77.11;98464.31;4479343;32;33866;-75
2023/08/06 02:04:22;;;;;;;8.75;5.70;;;;;;;22.53;76.48;98456.19;4479425;32;33608;-76
2023/08/06 02:06:50;;;;;;;9.05;5.82;;;;;;;22.05;79.67;98453.78;4478148;32;33857;-76
2023/08/06 02:09:17;;;;;;;8.60;5.68;;;;;;;21.85;80.82;98441.06;4481939;32;34243;-76
2023/08/06 02:11:45;;;;;;;8.05;5.45;;;;;;;21.93;80.68;98439.13;4466588;32;34462;-75
2023/08/06 02:14:13;;;;;;;8.93;5.87;;;;;;;21.88;80.76;98430.44;4475248;32;34326;-75
2023/08/06 02:16:40;;;;;;;7.62;5.43;;;;;;;22.04;80.43;98417.78;4482135;32;34239;-76
2023/08/06 02:19:08;;;;;;;8.27;5.40;;;;;;;21.99;79.44;98411.75;4481313;32;34064;-75
2023/08/06 02:21:35;;;;;;;8.77;5.35;;;;;;;22.26;78.44;98404.12;4483772;32;34631;-74
2023/08/06 02:24:03;;;;;;;8.68;4.90;;;;;;;22.12;79.12;98412.34;4483920;32;33715;-76
2023/08/06 02:26:31;;;;;;;8.23;5.10;;;;;;;21.89;80.18;98407.59;4483953;32;33955;-76
2023/08/06 02:28:58;;;;;;;7.03;4.57;;;;;;;22.12;79.23;98410.56;4483208;32;33730;-74
2023/08/06 02:31:26;;;;;;;7.53;4.73;;;;;;;22.06;79.02;98402.81;4483889;32;33859;-76
2023/08/06 02:33:54;;;;;;;6.90;4.50;;;;;;;22.08;78.97;98411.53;4482643;32;32069;-76
2023/08/06 02:36:21;;;;;;;8.15;5.12;;;;;;;22.02;78.73;98406.41;4467245;32;32624;-73
2023/08/06 02:38:49;;;;;;;7.07;4.22;;;;;;;21.81;80.29;98405.16;4480188;32;34405;-75
2023/08/06 02:41:16;;;;;;;9.85;5.07;;;;;;;21.69;81.06;98403.66;4483816;32;33630;-74
2023/08/06 02:43:44;;;;;;;6.50;4.78;;;;;;;21.88;80.61;98395.31;4483773;32;33926;-75
2023/08/06 02:46:11;;;;;;;7.72;4.45;;;;;;;21.57;82.27;98410.03;4468527;32;35719;-74
2023/08/06 02:48:39;;;;;;;7.57;4.40;;;;;;;21.49;83.27;98395.31;4482948;32;33861;-73
2023/08/06 02:51:07;;;;;;;7.82;4.28;;;;;;;21.99;80.12;98385.37;4484043;32;33510;-76
2023/08/06 02:53:34;;;;;;;6.75;4.53;;;;;;;22.08;79.43;98385.16;4483472;32;33655;-76
2023/08/06 02:56:02;;;;;;;6.32;4.32;;;;;;;21.64;81.44;98388.84;4483071;32;33915;-76
2023/08/06 02:58:31;;;;;;;8.35;4.57;;;;;;;21.73;81.14;98394.78;4483974;32;34306;-76
2023/08/06 03:01:03;;;;;;;8.13;4.32;;;;;;;21.77;80.60;98406.13;4469002;32;33879;-76
2023/08/06 03:03:32;;;;;;;7.12;4.70;;;;;;;21.61;81.57;98400.31;4469544;32;33375;-76
2023/08/06 03:06:01;;;;;;;6.12;4.00;;;;;;;21.78;81.56;98403.44;4483443;32;33110;-75
2023/08/06 03:08:29;;;;;;;7.40;4.35;;;;;;;21.70;81.29;98400.13;4483815;32;34171;-74
2023/08/06 03:10:57;;;;;;;6.97;4.47;;;;;;;21.82;80.50;98398.09;4483843;32;32402;-76
2023/08/06 03:13:25;;;;;;;7.93;4.57;;;;;;;21.77;80.20;98396.44;4482286;32;33503;-73
2023/08/06 03:15:58;;;;;;;8.25;4.50;;;;;;;21.70;81.44;98400.13;4480981;32;33883;-75
2023/08/06 03:18:26;;;;;;;7.50;4.50;;;;;;;21.77;81.05;98396.44;4475781;32;33493;-74
2023/08/06 03:20:55;;;;;;;8.82;4.85;;;;;;;21.69;81.06;98393.13;4479293;32;32583;-74
2023/08/06 03:23:24;;;;;;;8.27;4.93;;;;;;;22.07;78.77;98393.13;4475188;32;34211;-74
2023/08/06 03:25:52;;;;;;;7.00;4.50;;;;;;;21.86;79.33;98390.06;4480333;32;32994;-75
2023/08/06 03:28:19;;;;;;;8.65;4.45;;;;;;;21.68;79.79;98394.00;4482517;32;33624;-74
2023/08/06 03:30:47;;;;;;;8.68;4.93;;;;;;;21.85;78.72;98398.03;4481133;32;33630;-75
2023/08/06 03:33:14;;;;;;;8.52;4.20;;;;;;;21.91;78.61;98397.91;4477379;32;33738;-74
2023/08/06 03:35:43;;;;;;;8.40;4.78;;;;;;;22.01;78.42;98391.50;4469422;32;33929;-75
2023/08/06 03:38:10;;;;;;;6.90;4.53;;;;;;;21.91;78.41;98387.34;4483001;32;33834;-76
2023/08/06 03:40:38;;;;;;;8.07;4.57;;;;;;;22.05;78.23;98392.28;4483410;32;33857;-76
2023/08/06 03:43:05;;;;;;;7.12;4.18;;;;;;;21.59;80.11;98391.56;4480527;32;33648;-75
2023/08/06 03:45:33;;;;;;;7.20;4.20;;;;;;;21.85;79.36;98398.91;4481883;32;34442;-74
2023/08/06 03:48:01;;;;;;;6.68;4.30;;;;;;;21.80;79.02;98400.75;4481045;32;33618;-75
2023/08/06 03:50:28;;;;;;;8.35;4.75;;;;;;;21.96;77.67;98391.59;4483490;32;33769;-76
2023/08/06 03:52:56;;;;;;;7.37;4.65;;;;;;;21.59;80.53;98405.66;4482161;32;34404;-73
2023/08/06 03:55:24;;;;;;;8.20;4.65;;;;;;;21.71;80.23;98407.13;4480208;32;32972;-76
2023/08/06 03:57:52;;;;;;;8.13;5.00;;;;;;;21.65;79.74;98401.13;4482970;32;33847;-74
2023/08/06 04:00:20;;;;;;;8.15;5.20;;;;;;;21.58;80.52;98389.84;4482461;32;34600;-76
2023/08/06 04:02:49;;;;;;;9.75;5.12;;;;;;;21.62;80.25;98396.78;4475227;32;33385;-74
2023/08/06 04:05:17;;;;;;;8.27;5.00;;;;;;;21.73;79.77;98391.25;4483668;32;33959;-75
2023/08/06 04:07:45;;;;;;;7.15;5.35;;;;;;;21.86;78.99;98397.12;4483613;32;33685;-75
2023/08/06 04:10:13;;;;;;;6.93;4.47;;;;;;;21.93;78.23;98390.81;4471249;32;33443;-76
2023/08/06 04:12:41;;;;;;;6.80;3.80;;;;;;;21.84;78.17;98389.25;4482801;32;34332;-73
2023/08/06 04:15:10;;;;;;;6.00;2.95;;;;;;;21.66;78.70;98382.63;4483331;32;32922;-74
2023/08/06 04:17:37;;;;;;;4.30;1.90;;;;;;;21.88;77.64;98392.69;4481184;32;33407;-74
2023/08/06 04:20:06;;;;;;;2.75;1.60;;;;;;;22.10;76.15;98383.34;4482528;32;33685;-75
2023/08/06 04:22:33;;;;;;;2.92;1.42;;;;;;;22.23;74.44;98388.31;4468110;32;33395;-75
2023/08/06 04:25:01;;;;;;;3.87;1.57;;;;;;;22.09;75.02;98386.88;4466696;32;31526;-75
2023/08/06 04:27:29;;;;;;;2.90;1.50;;;;;;;21.55;77.61;98385.50;4475592;32;34460;-76
2023/08/06 04:29:56;;;;;;;4.05;1.60;;;;;;;22.01;75.30;98378.31;4477254;32;33837;-75
2023/08/06 04:32:26;;;;;;;2.78;1.65;;;;;;;21.64;76.73;98368.63;4477125;32;33689;-76
2023/08/06 04:34:55;;;;;;;4.22;1.70;;;;;;;21.55;76.77;98371.47;4482919;32;32618;-76
2023/08/06 04:37:23;;;;;;;3.87;1.58;;;;;;;21.70;76.49;98367.63;4477051;32;33196;-76
2023/08/06 04:39:51;;;;;;;3.25;1.52;;;;;;;21.16;79.09;98371.41;4478283;32;33870;-76
2023/08/06 04:42:19;;;;;;;2.92;1.60;;;;;;;21.17;79.72;98362.59;4475685;32;33606;-75
2023/08/06 04:44:46;;;;;;;3.22;1.30;;;;;;;21.38;78.65;98362.16;4476278;32;33160;-74
2023/08/06 04:47:14;;;;;;;3.33;1.00;;;;;;;21.23;78.29;98367.75;4474632;32;33503;-75
2023/08/06 04:49:42;;;;;;;2.35;0.90;;;;;;;21.46;76.05;98363.75;4463254;32;34722;-73
2023/08/06 04:52:10;;;;;;;1.70;0.80;;;;;;;21.41;76.09;98367.34;4479480;32;33588;-74
2023/08/06 04:54:38;;;;;;;1.40;0.62;;;;;;;21.37;77.19;98367.47;4483020;32;32978;-76
2023/08/06 04:57:05;;;;;;;1.33;0.60;;;;;;;21.38;77.05;98367.44;4479496;32;33803;-74
2023/08/06 04:59:33;;;;;;;2.58;0.68;;;;;;;21.33;77.33;98358.75;4483406;32;33456;-73
2023/08/06 05:02:01;;;;;;;1.48;0.50;;;;;;;21.15;78.40;98359.12;4472105;32;34204;-76
2023/08/06 05:04:28;;;;;;;2.67;0.70;;;;;;;21.50;76.58;98365.44;4466438;32;32999;-77
2023/08/06 05:06:56;;;;;;;1.10;0.40;;;;;;;20.94;80.38;98363.09;4479997;32;33729;-75
2023/08/06 05:09:23;;;;;;;1.03;0.50;;;;;;;21.26;78.54;98356.28;4481495;32;33216;-76
2023/08/06 05:11:51;;;;;;;1.60;0.60;;;;;;;21.44;77.14;98355.03;4481772;32;33516;-76
2023/08/06 05:14:19;;;;;;;1.70;0.40;;;;;;;20.94;80.09;98353.44;4482671;32;33195;-73
2023/08/06 05:16:47;;;;;;;1.48;0.40;;;;;;;21.10;78.81;98347.84;4482214;32;34275;-73
2023/08/06 05:19:14;;;;;;;1.58;0.40;;;;;;;21.21;77.58;98345.84;4482253;32;34555;-76
2023/08/06 05:21:42;;;;;;;1.05;0.40;;;;;;;20.98;79.20;98347.19;4481419;32;34392;-73
2023/08/06 05:24:10;;;;;;;1.05;0.50;;;;;;;21.13;78.25;98346.03;4479799;32;33971;-73
2023/08/06 05:26:37;;;;;;;0.62;0.30;;;;;;;21.00;79.76;98350.66;4463902;32;33915;-74
2023/08/06 05:29:04;;;;;;;1.30;0.30;;;;;;;21.33;77.42;98348.22;4475228;32;33815;-75
2023/08/06 05:31:32;;;;;;;0.65;0.30;;;;;;;21.37;76.39;98352.50;4479172;32;33481;-74
2023/08/06 05:34:01;;;;;;;1.50;0.20;;;;;;;21.71;74.36;98343.88;4477791;32;33072;-74
2023/08/06 05:36:28;;;;;;;0.60;0.20;;;;;;;21.27;75.06;98348.34;4476035;32;33277;-75
2023/08/06 05:38:56;;;;;;;0.45;0.10;;;;;;;21.61;72.37;98342.34;4478806;32;34686;-76
2023/08/06 05:41:25;;;;;;;0.17;0.10;;;;;;;21.38;72.76;98346.34;4475808;32;34260;-76
2023/08/06 05:43:52;;;;;;;0.50;0.10;;;;;;;21.12;73.92;98346.03;4481231;32;33369;-74
2023/08/06 05:46:20;;;;;;;0.50;0.20;;;;;;;21.16;73.11;98345.09;4475503;32;34633;-74
2023/08/06 05:48:48;;;;;;;0.32;0.20;;;;;;;21.08;74.04;98344.38;4480660;32;33606;-74
2023/08/06 05:51:16;;;;;;;1.42;0.20;;;;;;;20.89;74.06;98342.13;4475777;32;34611;-76
2023/08/06 05:53:45;;;;;;;0.75;0.15;;;;;;;20.90;75.15;98343.88;4478142;32;33351;-76
2023/08/06 05:56:13;;;;;;;0.30;0.20;;;;;;;20.75;75.29;98344.16;4477192;32;33703;-74
2023/08/06 05:58:40;;;;;;;0.55;0.20;;;;;;;20.79;74.80;98337.94;4459042;32;32485;-75
2023/08/06 06:01:08;;;;;;;1.00;0.30;;;;;;;21.02;72.85;98333.06;4477844;32;33358;-75
2023/08/06 06:03:36;;;;;;;0.30;0.20;;;;;;;20.95;73.42;98331.47;4464216;32;33184;-73
2023/08/06 06:06:03;;;;;;;0.60;0.25;;;;;;;20.98;72.86;98320.88;4481467;32;34050;-72
2023/08/06 06:08:31;;;;;;;1.90;0.30;;;;;;;20.83;73.67;98320.34;4461046;32;32594;-74
2023/08/06 06:10:59;;;;;;;0.62;0.40;;;;;;;20.72;74.78;98317.91;4476761;32;34391;-74
2023/08/06 06:13:26;;;;;;;1.65;0.50;;;;;;;20.79;74.51;98303.75;4477989;32;33437;-73
2023/08/06 06:15:55;;;;;;;0.43;0.40;;;;;;;20.87;74.14;98304.44;4480197;32;34275;-74
2023/08/06 06:18:23;;;;;;;2.42;0.50;;;;;;;20.78;74.38;98316.03;4473778;32;34718;-74
2023/08/06 06:20:51;;;;;;;0.50;0.40;;;;;;;20.68;74.21;98326.75;4462519;32;34528;-76
2023/08/06 06:23:18;;;;;;;1.30;0.40;;;;;;;20.59;75.15;98319.88;4477015;32;33023;-73
2023/08/06 06:25:53;;;;;;;1.20;0.50;;;;;;;20.71;75.16;98327.56;4470813;32;33984;-74
2023/08/06 06:28:20;;;;;;;1.42;0.50;;;;;;;20.65;74.82;98322.44;4472171;32;33403;-74
2023/08/06 06:30:48;;;;;;;0.80;0.40;;;;;;;20.42;76.80;98325.47;4472636;32;33404;-74
2023/08/06 06:33:15;;;;;;;1.00;0.40;;;;;;;20.79;74.56;98340.56;4479965;32;33255;-73
2023/08/06 06:35:43;;;;;;;1.40;0.30;;;;;;;20.91;73.55;98342.09;4479599;32;34182;-74
2023/08/06 06:38:11;;;;;;;1.23;0.40;;;;;;;20.37;75.50;98349.22;4464306;32;32128;-75
2023/08/06 06:40:39;;;;;;;0.45;0.40;;;;;;;20.59;75.30;98355.00;4465374;32;33250;-75
2023/08/06 06:43:06;;;;;;;1.27;0.50;;;;;;;20.48;75.04;98353.44;4480384;32;31750;-73
2023/08/06 06:45:34;;;;;;;0.43;0.40;;;;;;;20.43;75.80;98348.22;4479222;32;32270;-74
2023/08/06 06:48:01;;;;;;;0.70;0.40;;;;;;;20.59;75.51;98360.25;4462313;32;33835;-74
2023/08/06 06:50:29;;;;;;;0.80;0.50;;;;;;;20.65;74.89;98347.84;4480509;32;33634;-75
2023/08/06 06:52:57;;;;;;;1.50;0.40;;;;;;;20.68;75.34;98347.81;4462667;32;32003;-74
2023/08/06 06:55:24;;;;;;;1.73;0.40;;;;;;;20.80;74.55;98352.81;4479170;32;33885;-73
2023/08/06 06:57:52;;;;;;;0.62;0.43;;;;;;;20.72;75.69;98349.47;4479962;32;33787;-73
2023/08/06 07:00:19;;;;;;;1.48;0.35;;;;;;;20.68;75.55;98347.81;4476829;32;34155;-75
2023/08/06 07:02:47;;;;;;;0.40;0.30;;;;;;;20.94;74.72;98345.53;4470493;32;32724;-74
2023/08/06 07:05:15;;;;;;;0.90;0.37;;;;;;;21.13;73.12;98347.75;4473913;32;34341;-73
2023/08/06 07:07:42;;;;;;;1.90;0.30;;;;;;;20.83;73.73;98344.03;4476216;32;33429;-76
2023/08/06 07:10:11;;;;;;;0.60;0.30;;;;;;;20.73;74.47;98345.97;4475888;32;33434;-73
2023/08/06 07:12:38;;;;;;;0.73;0.30;;;;;;;20.52;75.89;98342.81;4481246;32;33171;-74
2023/08/06 07:15:06;;;;;;;1.12;0.22;;;;;;;20.37;76.89;98345.72;4481534;32;33787;-74
2023/08/06 07:17:34;;;;;;;0.90;0.20;;;;;;;21.07;72.59;98342.62;4456425;32;34323;-74
2023/08/06 07:20:01;;;;;;;2.00;0.20;;;;;;;21.20;71.24;98352.00;4480434;32;33478;-74
2023/08/06 07:22:29;;;;;;;0.50;0.20;;;;;;;21.00;72.06;98357.69;4481315;32;33890;-73
2023/08/06 07:24:57;;;;;;;0.40;0.20;;;;;;;21.15;71.90;98364.41;4483016;32;34326;-72
2023/08/06 07:27:25;;;;;;;0.25;0.17;;;;;;;21.15;71.34;98369.66;4484222;32;33703;-73
2023/08/06 07:29:53;;;;;;;0.70;0.20;;;;;;;21.01;71.47;98370.84;4470164;32;33390;-73
2023/08/06 07:32:20;;;;;;;0.22;0.20;;;;;;;21.01;71.76;98378.75;4484247;32;32902;-74
2023/08/06 07:34:47;;;;;;;0.13;0.10;;;;;;;20.86;72.06;98368.50;4484281;32;34589;-73
2023/08/06 07:37:15;;;;;;;0.40;0.20;;;;;;;21.00;71.00;98360.34;4484280;32;34011;-74
2023/08/06 07:39:42;;;;;;;0.47;0.13;;;;;;;20.91;71.93;98364.00;4484063;32;34574;-74
2023/08/06 07:42:10;;;;;;;1.05;0.10;;;;;;;21.00;71.44;98361.19;4483922;32;33991;-74
2023/08/06 07:44:38;;;;;;;0.28;0.20;;;;;;;20.93;72.04;98375.38;4484114;32;33885;-74
2023/08/06 07:47:07;;;;;;;0.40;0.10;;;;;;;20.71;73.58;98369.66;4484013;32;33825;-74
2023/08/06 07:49:34;;;;;;;1.85;0.20;;;;;;;21.05;72.00;98378.66;4472471;32;34427;-73
2023/08/06 07:52:02;;;;;;;1.50;0.20;;;;;;;21.07;71.32;98369.81;4482849;32;32900;-73
2023/08/06 07:54:30;;;;;;;0.30;0.20;;;;;;;20.96;71.19;98364.78;4483845;32;33705;-75
2023/08/06 07:56:57;;;;;;;0.20;0.20;;;;;;;20.90;71.82;98375.44;4483757;32;34600;-74
2023/08/06 07:59:25;;;;;;;0.90;0.30;;;;;;;20.90;71.83;98372.81;4483819;32;33766;-73
2023/08/06 08:01:52;;;;;;;1.10;0.30;;;;;;;20.79;72.60;98366.91;4483756;32;33939;-73
2023/08/06 08:04:21;;;;;;;0.20;0.20;;;;;;;20.72;72.76;98371.38;4483829;32;33846;-74
2023/08/06 08:06:49;;;;;;;0.80;0.30;;;;;;;20.84;72.84;98359.75;4483893;32;34341;-74
2023/08/06 08:09:16;;;;;;;0.62;0.20;;;;;;;20.81;71.63;98359.84;4483766;32;33791;-73
2023/08/06 08:11:45;;;;;;;0.30;0.20;;;;;;;20.99;71.02;98348.06;4483540;32;33443;-73
2023/08/06 08:14:14;;;;;;;0.80;0.30;;;;;;;20.90;71.66;98353.50;4471024;32;33717;-73
2023/08/06 08:16:42;;;;;;;0.20;0.20;;;;;;;20.99;71.09;98335.75;4483521;32;34289;-72
2023/08/06 08:19:09;;;;;;;1.20;0.20;;;;;;;21.00;72.00;98349.81;4483685;32;34293;-74
2023/08/06 08:21:37;;;;;;;0.70;0.30;;;;;;;20.90;71.30;98358.78;4484044;32;33229;-75
2023/08/06 08:24:05;;;;;;;0.50;0.22;;;;;;;21.05;71.74;98365.50;4483516;32;33882;-73
2023/08/06 08:26:32;;;;;;;0.70;0.30;;;;;;;21.10;71.39;98376.81;4483962;32;34549;-74
2023/08/06 08:29:00;;;;;;;1.13;0.23;;;;;;;20.98;71.60;98377.94;4483979;32;33732;-73
2023/08/06 08:31:28;;;;;;;0.37;0.20;;;;;;;20.99;70.97;98374.38;4483702;32;33428;-74
2023/08/06 08:33:56;;;;;;;0.60;0.30;;;;;;;21.09;70.31;98390.84;4483632;32;34483;-74
2023/08/06 08:36:26;;;;;;;1.10;0.30;;;;;;;20.88;72.31;98387.78;4483635;32;34306;-74
2023/08/06 08:38:54;;;;;;;0.85;0.30;;;;;;;21.28;70.33;98371.13;4483459;32;34199;-74
2023/08/06 08:41:22;;;;;;;0.50;0.30;;;;;;;21.32;68.93;98370.16;4483884;32;33097;-74
2023/08/06 08:43:51;;;;;;;1.00;0.40;;;;;;;21.14;69.38;98367.94;4456755;32;34496;-73
2023/08/06 08:46:19;;;;;;;1.90;0.40;;;;;;;21.17;70.17;98367.84;4483922;32;33637;-73
2023/08/06 08:48:47;;;;;;;0.95;0.40;;;;;;;21.15;70.35;98361.75;4469074;32;33888;-73
2023/08/06 08:51:15;;;;;;;1.02;0.45;;;;;;;21.42;69.70;98362.94;4483477;32;32979;-73
2023/08/06 08:53:44;;;;;;;0.82;0.52;;;;;;;21.11;70.29;98368.88;4457119;32;33553;-74
2023/08/06 08:56:14;;;;;;;1.10;0.50;;;;;;;21.10;70.88;98366.28;4483445;32;32519;-73
2023/08/06 08:58:41;;;;;;;1.20;0.50;;;;;;;21.01;69.72;98355.03;4483288;32;33628;-73
2023/08/06 09:01:09;;;;;;;1.60;0.50;;;;;;;21.17;68.39;98358.22;4483789;32;33250;-74
2023/08/06 09:03:37;;;;;;;0.82;0.52;;;;;;;20.97;69.76;98353.34;4483106;32;33671;-75
2023/08/06 09:06:05;;;;;;;0.70;0.60;;;;;;;21.02;70.19;98364.66;4456629;32;33505;-73
2023/08/06 09:08:39;;;;;;;1.15;0.80;;;;;;;21.02;69.14;98375.19;4477167;32;34074;-74
2023/08/06 09:11:12;;;;;;;1.10;0.70;;;;;;;20.83;70.20;98376.47;4475276;32;32643;-74
2023/08/06 09:13:39;;;;;;;2.90;0.90;;;;;;;20.95;70.01;98394.63;4483478;32;33562;-74
2023/08/06 09:16:07;;;;;;;1.73;0.82;;;;;;;20.83;70.94;98394.88;4483173;32;34065;-73
2023/08/06 09:18:38;;;;;;;1.75;0.82;;;;;;;21.05;69.31;98399.72;4483437;32;33765;-74
2023/08/06 09:21:13;;;;;;;1.50;0.90;;;;;;;20.59;72.01;98391.81;4483314;32;33783;-73
2023/08/06 09:23:41;;;;;;;2.67;0.90;;;;;;;21.20;69.04;98389.72;4483554;32;33310;-73
2023/08/06 09:26:11;;;;;;;1.37;0.87;;;;;;;21.17;69.32;98373.12;4482988;32;33176;-73
2023/08/06 09:28:43;;;;;;;1.17;0.80;;;;;;;21.26;68.73;98380.84;4482846;32;33751;-74
2023/08/06 09:31:11;;;;;;;1.45;0.80;;;;;;;21.19;67.88;98379.25;4483590;32;33220;-73
2023/08/06 09:33:38;;;;;;;2.47;0.80;;;;;;;21.31;68.08;98389.53;4483268;32;33511;-73
2023/08/06 09:36:12;;;;;;;1.10;0.77;;;;;;;21.16;68.21;98388.06;4483082;32;33728;-74
2023/08/06 09:38:40;;;;;;;1.37;0.80;;;;;;;21.18;67.77;98380.16;4483220;32;33881;-74
2023/08/06 09:41:09;;;;;;;1.98;0.70;;;;;;;21.25;68.27;98381.75;4482973;32;33161;-74
2023/08/06 09:43:43;;;;;;;1.90;0.60;;;;;;;21.13;68.47;98385.50;4457066;32;33867;-73
2023/08/06 09:46:13;;;;;;;1.10;0.65;;;;;;;21.14;67.01;98381.09;4483058;32;33088;-74
2023/08/06 09:48:41;;;;;;;0.73;0.50;;;;;;;21.14;67.96;98379.34;4482783;32;33309;-72
2023/08/06 09:51:09;;;;;;;1.40;0.60;;;;;;;20.96;68.43;98380.59;4483008;32;33473;-73
2023/08/06 09:53:37;;;;;;;1.50;0.60;;;;;;;20.77;69.20;98376.59;4482919;32;33484;-72
2023/08/06 09:56:05;;;;;;;1.40;0.68;;;;;;;20.94;68.42;98377.13;4482979;32;33854;-73
2023/08/06 09:58:32;;;;;;;1.67;0.60;;;;;;;20.79;69.14;98374.78;4463603;32;33590;-72
2023/08/06 10:01:01;;;;;;;1.50;0.60;;;;;;;20.90;68.79;98388.59;4474936;32;33131;-73
2023/08/06 10:03:29;;;;;;;0.70;0.50;;;;;;;20.97;68.82;98392.84;4470602;32;33412;-72
2023/08/06 10:05:57;;;;;;;1.40;0.50;;;;;;;21.21;68.51;98388.00;4479917;32;33838;-73
2023/08/06 10:08:25;;;;;;;2.25;0.40;;;;;;;21.31;67.79;98397.41;4482774;32;33675;-75
2023/08/06 10:10:53;;;;;;;0.82;0.43;;;;;;;21.28;66.06;98408.00;4481839;32;34467;-72
2023/08/06 10:13:22;;;;;;;0.75;0.40;;;;;;;20.99;67.59;98416.50;4458360;32;34259;-72
2023/08/06 10:15:50;;;;;;;1.73;0.60;;;;;;;21.21;67.40;98416.97;4476689;32;34567;-75
2023/08/06 10:18:21;;;;;;;1.00;0.50;;;;;;;21.28;66.44;98426.44;4482531;32;33811;-74
2023/08/06 10:20:48;;;;;;;1.73;0.45;;;;;;;21.38;65.55;98428.00;4482816;32;34879;-75
2023/08/06 10:23:17;;;;;;;0.98;0.50;;;;;;;21.60;65.22;98411.78;4482390;32;34322;-73
2023/08/06 10:25:53;;;;;;;1.80;0.40;;;;;;;21.50;66.11;98434.81;4482428;32;34476;-72
2023/08/06 10:28:21;;;;;;;0.80;0.40;;;;;;;21.56;64.78;98428.56;4470755;32;33602;-73
2023/08/06 10:30:49;;;;;;;0.60;0.40;;;;;;;21.64;65.54;98431.03;4482825;32;32826;-74
2023/08/06 10:33:19;;;;;;;1.40;0.50;;;;;;;21.65;63.63;98428.31;4482418;32;34503;-73
2023/08/06 10:35:50;;;;;;;0.80;0.50;;;;;;;21.55;64.62;98434.69;4482161;32;34286;-73
2023/08/06 10:38:21;;;;;;;1.40;0.50;;;;;;;21.64;63.76;98446.84;4482609;32;33247;-73
2023/08/06 10:40:53;;;;;;;2.50;0.57;;;;;;;21.76;63.48;98439.50;4484621;32;33931;-73
2023/08/06 10:43:28;;;;;;;1.10;0.60;;;;;;;21.77;64.72;98450.94;4484544;32;33294;-74
2023/08/06 10:45:57;;;;;;;0.88;0.60;;;;;;;21.77;63.98;98443.88;4457389;32;33923;-74
2023/08/06 10:48:36;;;;;;;0.88;0.60;;;;;;;21.80;63.96;98449.06;4480564;32;33529;-75
2023/08/06 10:51:07;;;;;;;1.33;0.68;;;;;;;22.13;62.65;98451.84;4477075;32;32238;-73
2023/08/06 10:53:34;;;;;;;1.33;0.53;;;;;;;21.92;63.01;98453.22;4484372;32;33250;-73
2023/08/06 10:56:02;;;;;;;1.30;0.70;;;;;;;22.11;62.40;98456.28;4484337;32;33626;-73
2023/08/06 10:58:33;;;;;;;1.25;0.70;;;;;;;22.17;62.26;98445.59;4478321;32;34218;-72
2023/08/06 11:01:01;;;;;;;1.20;0.70;;;;;;;22.03;62.89;98460.00;4476836;32;33789;-74
2023/08/06 11:03:30;;;;;;;1.17;0.60;;;;;;;22.15;62.46;98452.66;4484143;32;33764;-73
2023/08/06 11:05:57;;;;;;;1.70;0.60;;;;;;;22.23;61.94;98456.91;4484315;32;33888;-74
2023/08/06 11:08:26;;;;;;;2.08;0.70;;;;;;;22.21;61.51;98463.97;4484155;32;33859;-74
2023/08/06 11:10:54;;;;;;;2.10;0.70;;;;;;;22.06;62.26;98474.00;4484155;32;32417;-72
2023/08/06 11:13:31;;;;;;;1.77;0.70;;;;;;;21.86;62.96;98476.19;4484356;32;34005;-73
2023/08/06 11:15:58;;;;;;;2.53;0.80;;;;;;;21.78;63.42;98471.97;4470040;32;33855;-72
2023/08/06 11:18:26;;;;;;;3.47;0.68;;;;;;;21.54;65.43;98477.78;4478991;32;33162;-72
2023/08/06 11:20:54;;;;;;;1.40;0.70;;;;;;;21.71;63.44;98470.38;4475897;32;34047;-74
2023/08/06 11:23:21;;;;;;;0.98;0.60;;;;;;;21.37;65.30;98481.56;4484114;32;33880;-72
2023/08/06 11:25:49;;;;;;;1.48;0.80;;;;;;;21.41;65.66;98475.34;4456872;32;34549;-72
2023/08/06 11:28:21;;;;;;;1.83;0.75;;;;;;;21.54;64.61;98462.81;4484435;32;35018;-73
2023/08/06 11:30:49;;;;;;;1.30;0.70;;;;;;;21.45;65.23;98468.28;4484260;32;33226;-74
2023/08/06 11:33:27;;;;;;;1.08;0.52;;;;;;;21.49;65.03;98453.28;4484357;32;33412;-72
2023/08/06 11:35:56;;;;;;;1.10;0.52;;;;;;;21.40;65.56;98460.44;4457753;32;33168;-72
2023/08/06 11:38:30;;;;;;;1.80;0.70;;;;;;;21.52;64.41;98459.34;4484299;32;33248;-73